Bangor International Airport Bangor US
ICAO: KBGR
IATA: BGR
Category: Large
Scheduled Services: Yes

Elevation: 192 ft
TransAlt. 18000 ft.

Airport Communications:
APP/DEP:118.925
ASOS:127.75
ATIS:127.75
CLNC DEL:135.9
GND:121.9
ARNG OPS:41.2
ANG OPS:31.1
RDO:122.2
TWR:120.7
UNICOM:122.95

KBGR Zoom In..

Runways:

(A) RW 15 length 11440 ft width 200 ft
ILS 109.50 / hdg 153

(B) RW 33 length 11440 ft width 200 ft
ILS 109.50 / hdg 333

Location; KBGR
Day. 27 / Time. 07.42 Zulu
* Altimeter: 29.98
* Temperature: 02° c. 35.6°f.
* Wind from: 000° Speed 00 kn.
Dewpoint: 02° c.
Visibility: 1/4 Statute Miles.
Conditions: Fog.

KBGR 270742Z 00000KT 1/4SM R15/2200V2800FT FG VV002 02/02 A2998

Going to: --> -->


Wind - Calm.

 
 
jpsmedia worldairports.se 2020   terms of use